Terminal Aerodrome Forecast
Issued by NWS

Home | Current Version | Previous Version | Text Only | Print | Product List | Glossary On
Versions: 1 2 3 4 5 6 7 8 9 10 11 12 13 14 15 16 17 18 19 20 21
000
FTUS45 KLKN 290520
TAFWMC
TAF
KWMC 290520Z 2906/3006 15005KT P6SM BKN200
     FM291300 17007KT P6SM SCT200
     FM291800 21018G30KT P6SM BKN120
     FM300000 25020G32KT P6SM BKN120
     FM300400 25007KT P6SM BKN150=

USA.gov is the U.S. government's official web portal to all federal, state and local government web resources and services.